Time;durP1;ratioP1;P1;durP2;ratioP2;P2;SDS_P1;SDS_P2;PMS_P1;PMS_P2;Temp;Humidity;BMP_temperature;BMP_pressure;BME280_temperature;BME280_humidity;BME280_pressure;Samples;Min_cycle;Max_cycle;Signal;HPM_P1;HPM_P2
2023/01/05 00:00:50;;;;;;;1.07;0.98;;;;;;;3.63;61.98;101285.78;442946;120;922483;-78
2023/01/05 00:01:53;;;;;;;0.99;0.99;;;;;;;3.62;61.97;101283.23;442958;120;922621;-77
2023/01/05 00:02:57;;;;;;;0.98;0.98;;;;;;;3.61;62.06;101279.68;442919;120;922476;-78
2023/01/05 00:04:00;;;;;;;1.07;1.02;;;;;;;3.60;61.93;101279.82;443024;118;922502;-77
2023/01/05 00:05:03;;;;;;;1.19;1.09;;;;;;;3.58;61.93;101282.70;445536;119;922523;-77
2023/01/05 00:06:11;;;;;;;1.06;1.03;;;;;;;3.55;61.99;101282.98;445564;118;922672;-77
2023/01/05 00:07:14;;;;;;;1.09;1.00;;;;;;;3.53;61.99;101278.77;445418;119;922960;-78
2023/01/05 00:08:17;;;;;;;0.96;0.96;;;;;;;3.51;61.96;101283.45;445669;119;922475;-77
2023/01/05 00:09:20;;;;;;;1.59;0.95;;;;;;;3.50;62.07;101287.13;446455;118;922567;-80
2023/01/05 00:22:53;;;;;;;1.44;1.34;;;;;;;3.52;62.51;101282.45;445480;119;922900;-78
2023/01/05 00:23:56;;;;;;;1.49;1.39;;;;;;;3.48;62.43;101287.28;445440;119;922481;-76
2023/01/05 00:25:12;;;;;;;2.03;1.79;;;;;;;3.46;62.35;101280.36;442047;120;922969;-78
2023/01/05 00:26:16;;;;;;;1.32;1.22;;;;;;;3.44;62.40;101280.50;457841;116;922576;-77
2023/01/05 00:27:19;;;;;;;1.72;1.34;;;;;;;3.43;62.41;101270.71;458167;116;922794;-78
2023/01/05 00:28:22;;;;;;;1.24;1.14;;;;;;;3.41;62.44;101270.03;458196;116;922557;-77
2023/01/05 00:29:25;;;;;;;1.44;1.27;;;;;;;3.42;62.53;101270.89;460777;114;922425;-76
2023/01/05 00:30:35;;;;;;;1.36;1.26;;;;;;;3.42;62.48;101266.31;466287;114;922427;-78
2023/01/05 00:31:38;;;;;;;1.38;1.28;;;;;;;3.41;62.42;101263.80;466077;114;922510;-77
2023/01/05 00:32:42;;;;;;;1.47;1.37;;;;;;;3.39;62.55;101255.85;466348;114;922530;-77
2023/01/05 00:33:45;;;;;;;1.55;1.45;;;;;;;3.40;62.53;101257.55;466230;114;922420;-78
2023/01/05 00:34:49;;;;;;;1.50;1.37;;;;;;;3.40;62.48;101257.55;465601;114;922926;-78
2023/01/05 00:35:52;;;;;;;1.22;1.11;;;;;;;3.40;62.47;101254.01;466234;114;922456;-78
2023/01/05 00:36:56;;;;;;;1.55;1.40;;;;;;;3.40;62.62;101252.16;466243;114;922519;-78
2023/01/05 00:37:59;;;;;;;1.39;1.29;;;;;;;3.43;62.66;101254.54;466311;114;922732;-78
2023/01/05 00:39:02;;;;;;;1.36;1.26;;;;;;;3.44;62.73;101258.94;466046;114;922527;-77
2023/01/05 00:40:08;;;;;;;1.52;1.42;;;;;;;3.46;62.69;101256.95;458152;116;923060;-77
2023/01/05 00:41:12;;;;;;;1.67;1.32;;;;;;;3.48;62.58;101256.77;457938;116;930201;-76
2023/01/05 00:42:15;;;;;;;1.56;1.45;;;;;;;3.50;62.59;101260.17;458162;116;922878;-76
2023/01/05 00:43:18;;;;;;;1.15;1.05;;;;;;;3.51;62.58;101253.79;458181;116;922909;-78
2023/01/05 00:44:22;;;;;;;1.10;1.00;;;;;;;3.51;62.47;101257.33;458384;114;922931;-77
2023/01/05 00:45:25;;;;;;;1.34;1.21;;;;;;;3.49;62.39;101244.99;458228;116;923033;-78
2023/01/05 00:46:28;;;;;;;1.16;1.10;;;;;;;3.49;62.27;101250.38;458132;116;922589;-77
2023/01/05 00:47:32;;;;;;;1.20;1.10;;;;;;;3.48;62.31;101254.08;462694;114;930159;-78
2023/01/05 00:48:35;;;;;;;1.18;1.08;;;;;;;3.48;62.29;101259.47;463359;114;922526;-77
2023/01/05 00:49:39;;;;;;;1.21;1.13;;;;;;;3.46;62.35;101248.86;467661;112;922436;-78
2023/01/05 00:50:42;;;;;;;1.20;1.10;;;;;;;3.47;62.35;101247.02;471455;112;930151;-78
2023/01/05 00:51:46;;;;;;;1.19;1.09;;;;;;;3.47;62.48;101239.78;471624;112;922513;-78
2023/01/05 00:52:49;;;;;;;2.26;1.37;;;;;;;3.48;62.47;101241.45;471580;112;922526;-77
2023/01/05 00:53:52;;;;;;;1.12;1.03;;;;;;;3.51;62.47;101238.46;471601;112;922827;-77
2023/01/05 00:54:55;;;;;;;1.29;1.16;;;;;;;3.52;62.51;101229.38;470722;112;922425;-79
2023/01/05 00:55:59;;;;;;;1.99;1.58;;;;;;;3.54;62.41;101231.90;463433;112;922452;-77
2023/01/05 00:57:02;;;;;;;1.48;1.38;;;;;;;3.55;62.44;101226.36;454046;117;922560;-78
2023/01/05 00:58:05;;;;;;;1.14;1.04;;;;;;;3.58;62.54;101228.77;454659;114;922718;-79
2023/01/05 00:59:09;;;;;;;1.27;1.16;;;;;;;3.61;62.69;101217.66;463733;112;922454;-77
2023/01/05 01:00:17;;;;;;;1.36;1.26;;;;;;;3.65;62.67;101220.88;471482;112;922803;-78
2023/01/05 01:01:21;;;;;;;1.22;1.11;;;;;;;3.68;62.79;101218.75;472522;112;929534;-77
2023/01/05 01:02:24;;;;;;;1.35;1.25;;;;;;;3.71;62.70;101218.42;472797;112;921964;-77
2023/01/05 01:03:27;;;;;;;1.28;1.18;;;;;;;3.72;62.56;101213.88;472843;112;921944;-78
2023/01/05 01:04:32;;;;;;;1.41;1.31;;;;;;;3.72;62.39;101206.64;472165;112;922139;-77
2023/01/05 01:05:35;;;;;;;1.25;1.16;;;;;;;3.71;62.29;101201.39;472703;111;922229;-77
2023/01/05 01:06:39;;;;;;;1.47;1.37;;;;;;;3.69;62.25;101198.84;472869;109;929581;-77
2023/01/05 01:07:42;;;;;;;1.14;1.04;;;;;;;3.66;62.29;101185.68;472812;109;922113;-77
2023/01/05 01:08:45;;;;;;;2.01;1.56;;;;;;;3.65;62.41;101192.07;472910;111;921965;-78
2023/01/05 01:09:48;;;;;;;1.28;1.18;;;;;;;3.63;62.40;101186.01;464080;112;922051;-78
2023/01/05 01:10:52;;;;;;;1.51;1.39;;;;;;;3.63;62.56;101194.09;461391;115;921996;-77
2023/01/05 01:11:55;;;;;;;1.54;1.44;;;;;;;3.62;62.57;101189.70;461393;112;922158;-78
2023/01/05 01:12:58;;;;;;;1.43;1.31;;;;;;;3.61;62.46;101188.00;461348;112;922019;-77
2023/01/05 01:14:04;;;;;;;1.78;1.46;;;;;;;3.60;62.52;101188.14;461653;112;922267;-77
2023/01/05 01:15:08;;;;;;;1.40;1.30;;;;;;;3.58;62.42;101185.63;447394;115;922021;-78
2023/01/05 01:16:14;;;;;;;1.61;1.51;;;;;;;3.54;62.32;101178.83;464510;114;922013;-77
2023/01/05 01:17:17;;;;;;;1.49;1.39;;;;;;;3.53;62.45;101187.91;464344;114;922420;-77
2023/01/05 01:18:22;;;;;;;1.41;1.31;;;;;;;3.50;62.47;101177.45;464481;114;922096;-77
2023/01/05 01:19:26;;;;;;;1.35;1.25;;;;;;;3.49;62.38;101177.59;466935;112;922498;-77
2023/01/05 01:20:29;;;;;;;1.52;1.42;;;;;;;3.47;62.43;101176.92;472607;112;929769;-77
2023/01/05 01:21:32;;;;;;;1.56;1.46;;;;;;;3.44;62.36;101169.98;472802;112;922063;-77
2023/01/05 01:22:36;;;;;;;1.34;1.24;;;;;;;3.42;62.39;101168.45;472830;112;922045;-78
2023/01/05 01:23:39;;;;;;;1.45;1.35;;;;;;;3.40;62.36;101175.84;472874;112;922450;-77
2023/01/05 01:24:42;;;;;;;1.56;1.46;;;;;;;3.39;62.33;101166.05;471845;112;922452;-77
2023/01/05 01:25:47;;;;;;;1.53;1.43;;;;;;;3.36;62.42;101159.14;472634;112;922000;-77
2023/01/05 01:26:50;;;;;;;1.18;1.08;;;;;;;3.35;62.52;101168.22;472780;112;922070;-77
2023/01/05 01:27:54;;;;;;;1.35;1.25;;;;;;;3.34;62.58;101161.12;472689;112;922110;-78
2023/01/05 01:28:57;;;;;;;1.57;1.47;;;;;;;3.34;62.65;101172.77;472876;112;922085;-78
2023/01/05 01:30:00;;;;;;;1.51;1.41;;;;;;;3.33;62.62;101176.45;464860;112;922484;-76
2023/01/05 01:31:04;;;;;;;1.84;1.74;;;;;;;3.33;62.74;101171.06;464498;114;921972;-77
2023/01/05 01:32:08;;;;;;;1.68;1.58;;;;;;;3.33;62.68;101170.20;455151;116;922365;-77
2023/01/05 01:33:11;;;;;;;1.99;1.67;;;;;;;3.32;62.73;101166.66;464583;114;922048;-76
2023/01/05 01:34:14;;;;;;;1.52;1.42;;;;;;;3.32;62.86;101171.20;466080;112;922342;-77
2023/01/05 01:35:18;;;;;;;1.53;1.43;;;;;;;3.32;62.97;101173.90;472823;112;922923;-77
2023/01/05 01:36:21;;;;;;;1.57;1.47;;;;;;;3.31;62.99;101166.81;472777;111;922427;-78
2023/01/05 01:37:24;;;;;;;1.61;1.48;;;;;;;3.31;62.96;101167.66;472749;112;921964;-79
2023/01/05 01:38:29;;;;;;;1.46;1.36;;;;;;;3.31;62.93;101164.11;472484;112;922210;-77
2023/01/05 01:39:32;;;;;;;1.65;1.55;;;;;;;3.32;62.99;101169.36;471633;112;922161;-77
2023/01/05 01:40:41;;;;;;;2.12;1.92;;;;;;;3.33;63.00;101167.52;472039;112;922615;-77
2023/01/05 01:41:44;;;;;;;2.44;1.86;;;;;;;3.33;63.13;101170.20;472386;112;922537;-77
2023/01/05 01:42:47;;;;;;;1.72;1.62;;;;;;;3.33;63.15;101173.75;472478;112;922256;-78
2023/01/05 01:43:53;;;;;;;2.05;1.76;;;;;;;3.34;63.06;101172.77;472481;112;922495;-78
2023/01/05 01:45:06;;;;;;;1.97;1.79;;;;;;;3.33;63.10;101173.75;464831;112;922097;-78
2023/01/05 01:46:13;;;;;;;1.66;1.54;;;;;;;3.34;63.14;101161.12;464056;112;922504;-77
2023/01/05 01:47:28;;;;;;;1.55;1.45;;;;;;;3.35;63.17;101157.44;464412;114;922477;-77
2023/01/05 01:48:33;;;;;;;2.23;1.90;;;;;;;3.34;63.27;101151.20;464397;114;922093;-78
2023/01/05 01:49:36;;;;;;;1.78;1.51;;;;;;;3.33;63.19;101146.80;468317;112;922070;-77
2023/01/05 01:50:44;;;;;;;2.23;1.86;;;;;;;3.33;63.27;101151.34;472623;112;923332;-77
2023/01/05 01:51:48;;;;;;;1.88;1.68;;;;;;;3.32;63.15;101145.10;472335;112;922085;-74
2023/01/05 01:52:55;;;;;;;1.94;1.76;;;;;;;3.32;63.15;101145.10;471768;112;922534;-78
2023/01/05 01:54:02;;;;;;;2.77;1.76;;;;;;;3.33;63.16;101143.26;471580;112;930197;-80
2023/01/05 01:55:06;;;;;;;1.56;1.46;;;;;;;3.32;63.21;101146.95;463454;112;922245;-77
2023/01/05 01:56:14;;;;;;;1.81;1.71;;;;;;;3.31;63.24;101143.41;463432;114;922890;-77
2023/01/05 01:57:17;;;;;;;1.61;1.51;;;;;;;3.31;63.25;101147.94;463374;114;922449;-76
2023/01/05 01:58:24;;;;;;;1.76;1.66;;;;;;;3.32;63.25;101138.86;463445;114;923279;-77
2023/01/05 01:59:27;;;;;;;1.34;1.25;;;;;;;3.32;63.20;101147.80;466398;112;922917;-77
2023/01/05 02:00:31;;;;;;;1.59;1.49;;;;;;;3.32;63.13;101136.17;471775;112;922425;-75
2023/01/05 02:01:34;;;;;;;1.58;1.48;;;;;;;3.32;63.13;101138.86;471786;112;922487;-77
2023/01/05 02:02:37;;;;;;;1.90;1.76;;;;;;;3.31;63.15;101134.47;471684;112;922443;-77
2023/01/05 02:03:41;;;;;;;1.69;1.57;;;;;;;3.29;62.96;101133.80;471705;112;922518;-77
2023/01/05 02:04:45;;;;;;;1.58;1.48;;;;;;;3.28;62.93;101130.25;461544;114;922695;-76
2023/01/05 02:05:48;;;;;;;1.67;1.57;;;;;;;3.26;62.97;101120.61;462623;112;930290;-77
2023/01/05 02:06:52;;;;;;;1.47;1.36;;;;;;;3.24;62.90;101122.63;471711;112;922448;-77
2023/01/05 02:07:56;;;;;;;1.63;1.49;;;;;;;3.22;62.93;101114.70;471674;112;922662;-77
2023/01/05 02:08:59;;;;;;;1.41;1.31;;;;;;;3.20;62.98;101116.69;471639;112;923295;-78
2023/01/05 02:10:03;;;;;;;1.60;1.50;;;;;;;3.21;63.11;101115.69;463767;112;930371;-77
2023/01/05 02:11:26;;;;;;;1.64;1.52;;;;;;;3.21;63.12;101117.53;463336;114;930248;-78
2023/01/05 02:12:45;;;;;;;1.64;1.54;;;;;;;3.22;63.16;101121.93;463293;114;922455;-78
2023/01/05 02:14:07;;;;;;;2.46;1.53;;;;;;;3.21;63.14;101117.53;463233;114;922479;-78
2023/01/05 02:15:16;;;;;;;1.52;1.42;;;;;;;3.21;63.03;101123.77;442371;119;922681;-76
2023/01/05 02:17:03;;;;;;;1.68;1.53;;;;;;;3.31;63.15;101126.38;480725;110;946839;-77
2023/01/05 02:18:19;;;;;;;1.16;1.06;;;;;;;3.21;63.31;101128.31;465724;114;922506;-77
2023/01/05 02:19:50;;;;;;;1.63;1.50;;;;;;;3.19;63.23;101117.72;463384;114;922523;-77
2023/01/05 02:21:16;;;;;;;1.45;1.35;;;;;;;3.18;63.14;101110.63;465785;114;922523;-77
2023/01/05 02:22:44;;;;;;;1.37;1.27;;;;;;;3.16;63.24;101111.77;465225;114;922488;-76
2023/01/05 02:24:07;;;;;;;1.70;1.60;;;;;;;3.15;63.21;101113.61;465749;114;922621;-77
2023/01/05 02:25:45;;;;;;;1.44;1.34;;;;;;;3.15;63.25;101110.91;435442;121;922560;-78
2023/01/05 02:27:08;;;;;;;1.58;1.48;;;;;;;3.15;63.29;101108.22;440075;119;922370;-78
2023/01/05 02:28:31;;;;;;;1.59;1.49;;;;;;;3.16;63.39;101109.07;457464;116;922910;-77
2023/01/05 02:29:57;;;;;;;1.47;1.37;;;;;;;3.15;63.32;101107.38;461859;114;922475;-78
2023/01/05 02:31:12;;;;;;;1.43;1.33;;;;;;;3.16;63.46;101111.77;465644;114;922502;-77
2023/01/05 02:32:33;;;;;;;1.50;1.40;;;;;;;3.15;63.37;101110.06;465545;114;922662;-77
2023/01/05 02:33:59;;;;;;;1.51;1.41;;;;;;;3.14;63.40;101111.91;465105;114;922504;-78
2023/01/05 02:35:15;;;;;;;1.54;1.44;;;;;;;3.16;63.44;101109.07;465096;114;922570;-77
2023/01/05 02:36:32;;;;;;;1.43;1.33;;;;;;;3.17;63.33;101110.77;465528;114;922563;-80
2023/01/05 02:37:40;;;;;;;1.26;1.16;;;;;;;3.16;63.30;101112.61;465535;114;922430;-77
2023/01/05 02:39:15;;;;;;;1.35;1.25;;;;;;;3.26;63.15;101113.38;482637;110;946812;-77
2023/01/05 02:40:23;;;;;;;1.40;1.31;;;;;;;3.15;63.17;101110.91;472380;112;922651;-78
2023/01/05 02:41:36;;;;;;;1.37;1.27;;;;;;;3.17;63.10;101111.62;470444;112;922868;-78
2023/01/05 02:42:42;;;;;;;1.55;1.33;;;;;;;3.16;63.06;101111.77;465588;114;922538;-78
2023/01/05 02:43:45;;;;;;;1.27;1.17;;;;;;;3.17;62.98;101111.62;465590;114;922588;-76
2023/01/05 02:44:48;;;;;;;1.51;1.41;;;;;;;3.18;63.09;101110.63;465074;114;922499;-78
2023/01/05 02:45:52;;;;;;;1.31;1.21;;;;;;;3.19;62.92;101108.78;465808;114;922552;-78
2023/01/05 02:47:07;;;;;;;1.11;1.04;;;;;;;3.20;62.92;101108.60;465785;113;922592;-77
2023/01/05 02:48:10;;;;;;;1.36;1.26;;;;;;;3.21;62.85;101114.84;464994;114;922752;-77
2023/01/05 02:49:16;;;;;;;1.25;1.15;;;;;;;3.19;62.70;101115.02;464232;114;922560;-77
2023/01/05 02:50:32;;;;;;;1.65;1.55;;;;;;;3.19;62.67;101112.33;457487;116;922529;-77
2023/01/05 02:51:40;;;;;;;1.38;1.28;;;;;;;3.18;62.64;101115.16;457409;116;922516;-77
2023/01/05 02:52:59;;;;;;;1.47;1.37;;;;;;;3.19;62.52;101119.55;457614;116;922478;-78
2023/01/05 02:54:08;;;;;;;1.40;1.30;;;;;;;3.18;62.51;101116.02;457648;114;923056;-77
2023/01/05 02:55:15;;;;;;;1.23;1.13;;;;;;;3.17;62.50;101114.31;456713;114;922529;-76
2023/01/05 02:56:27;;;;;;;1.21;1.15;;;;;;;3.16;62.28;101118.00;457541;116;923079;-76
2023/01/05 02:57:46;;;;;;;1.51;1.41;;;;;;;3.13;62.17;101117.48;456560;116;922855;-77
2023/01/05 02:59:06;;;;;;;1.12;1.04;;;;;;;3.08;62.02;101115.25;456893;116;922596;-77
2023/01/05 03:00:41;;;;;;;1.30;1.17;;;;;;;3.12;61.92;101107.69;477291;110;946712;-77
2023/01/05 03:01:47;;;;;;;1.48;1.36;;;;;;;2.97;61.98;101110.09;461576;114;922645;-77
2023/01/05 03:02:54;;;;;;;1.46;1.36;;;;;;;2.90;62.06;101117.92;457339;115;922545;-77
2023/01/05 03:04:14;;;;;;;1.47;1.37;;;;;;;2.86;62.08;101113.00;457529;115;922575;-77
2023/01/05 03:05:24;;;;;;;1.41;1.31;;;;;;;2.80;61.90;101109.06;453403;117;922388;-77
2023/01/05 03:06:30;;;;;;;;;;;;;;;2.74;62.03;101112.36;456871;115;922026;-78
2023/01/05 03:07:36;;;;;;;1.14;1.08;;;;;;;2.70;62.16;101112.82;453413;115;922292;-78
2023/01/05 03:08:43;;;;;;;1.71;1.61;;;;;;;2.65;62.10;101113.25;453345;117;930080;-78
2023/01/05 03:09:48;;;;;;;1.57;1.47;;;;;;;2.59;62.19;101105.80;450873;116;922879;-77
2023/01/05 03:14:04;;;;;;;1.83;1.72;;;;;;;2.43;62.33;101108.27;449599;118;923000;-77
2023/01/05 03:15:11;;;;;;;1.96;1.77;;;;;;;2.40;62.34;101101.36;449700;117;922563;-77
2023/01/05 03:16:30;;;;;;;2.03;1.83;;;;;;;2.36;62.36;101096.43;449651;116;922905;-78
2023/01/05 03:17:37;;;;;;;1.63;1.53;;;;;;;2.33;62.56;101105.63;449686;117;922525;-78
2023/01/05 03:20:05;;;;;;;1.85;1.41;;;;;;;2.29;62.52;101103.39;449688;118;922638;-77
2023/01/05 03:21:09;;;;;;;1.28;1.18;;;;;;;2.23;62.50;101104.84;449711;118;922560;-77
2023/01/05 03:35:29;;;;;;;2.27;1.75;;;;;;;2.10;63.18;101082.80;449641;118;922495;-77
2023/01/05 03:36:38;;;;;;;2.19;1.99;;;;;;;2.12;63.38;101070.05;449691;116;922581;-77
2023/01/05 03:37:44;;;;;;;2.36;2.13;;;;;;;2.14;63.37;101075.30;449618;117;922494;-78
2023/01/05 03:38:58;;;;;;;2.76;2.34;;;;;;;2.29;63.41;101068.42;477298;110;946871;-77
2023/01/05 03:40:05;;;;;;;2.79;2.52;;;;;;;2.18;63.38;101063.23;465494;114;922490;-77
2023/01/05 03:41:13;;;;;;;2.88;2.42;;;;;;;2.21;63.18;101065.61;465553;114;923001;-77
2023/01/05 03:42:18;;;;;;;2.91;2.58;;;;;;;2.24;63.29;101065.33;457522;116;922524;-75
2023/01/05 03:43:21;;;;;;;2.53;2.33;;;;;;;2.29;63.53;101068.42;457630;116;922589;-78
2023/01/05 03:44:25;;;;;;;2.29;1.89;;;;;;;2.34;63.44;101061.59;455154;116;922661;-77
2023/01/05 03:45:42;;;;;;;2.10;1.91;;;;;;;2.38;63.23;101065.67;449730;118;922927;-78
2023/01/05 03:46:47;;;;;;;2.19;1.99;;;;;;;2.38;63.12;101060.28;449541;118;922937;-77
2023/01/05 03:47:51;;;;;;;2.10;1.84;;;;;;;2.40;63.02;101066.38;449587;118;922525;-78
2023/01/05 03:48:56;;;;;;;2.24;1.84;;;;;;;2.43;63.00;101063.37;449653;116;930328;-77
2023/01/05 03:49:59;;;;;;;1.98;1.88;;;;;;;2.46;63.08;101059.55;441672;116;922885;-78
2023/01/05 03:51:03;;;;;;;1.51;1.39;;;;;;;2.50;62.92;101063.62;441188;118;922615;-77
2023/01/05 03:52:06;;;;;;;1.58;1.47;;;;;;;2.53;62.93;101057.10;449709;118;923043;-77
2023/01/05 03:53:10;;;;;;;1.82;1.67;;;;;;;2.54;62.78;101064.19;449797;118;922525;-77
2023/01/05 03:54:13;;;;;;;2.75;2.08;;;;;;;2.55;62.61;101061.31;450153;114;922985;-77
2023/01/05 03:55:16;;;;;;;1.86;1.76;;;;;;;2.56;62.45;101062.17;449871;116;922541;-77
2023/01/05 03:56:19;;;;;;;3.81;2.02;;;;;;;2.56;62.30;101054.94;449772;118;922946;-77
2023/01/05 03:57:22;;;;;;;1.62;1.52;;;;;;;2.56;62.45;101060.33;450195;118;922312;-76
2023/01/05 03:58:26;;;;;;;1.57;1.47;;;;;;;2.58;62.47;101069.11;450129;117;923088;-78
2023/01/05 03:59:29;;;;;;;3.29;1.58;;;;;;;2.61;62.49;101059.87;453184;116;922340;-77
2023/01/05 04:00:33;;;;;;;1.85;1.63;;;;;;;2.62;62.41;101048.95;449325;118;922783;-77
2023/01/05 04:01:37;;;;;;;1.82;1.72;;;;;;;2.65;62.57;101043.25;457980;116;922823;-77
2023/01/05 04:02:40;;;;;;;1.81;1.71;;;;;;;2.68;62.50;101044.80;449415;118;922329;-77
2023/01/05 04:03:44;;;;;;;2.17;1.87;;;;;;;2.71;62.37;101047.18;457692;116;925341;-78
2023/01/05 04:04:47;;;;;;;1.82;1.64;;;;;;;2.72;62.48;101041.66;448252;116;928062;-77
2023/01/05 04:05:50;;;;;;;1.79;1.69;;;;;;;2.74;62.28;101044.20;458491;115;922612;-78
2023/01/05 04:06:53;;;;;;;1.67;1.57;;;;;;;2.75;62.20;101044.05;458494;115;922566;-78
2023/01/05 04:07:58;;;;;;;1.97;1.79;;;;;;;2.75;62.18;101038.67;457527;116;922462;-77
2023/01/05 04:09:03;;;;;;;1.57;1.47;;;;;;;2.76;62.14;101034.10;457114;115;922905;-76
2023/01/05 04:10:08;;;;;;;1.78;1.68;;;;;;;2.76;61.92;101043.03;449639;118;923152;-77
2023/01/05 04:11:19;;;;;;;1.65;1.48;;;;;;;2.77;62.00;101036.65;449768;117;922866;-78
2023/01/05 04:12:24;;;;;;;1.99;1.78;;;;;;;2.79;62.04;101033.81;448916;117;922562;-76
2023/01/05 04:13:28;;;;;;;2.46;2.26;;;;;;;2.81;62.04;101032.64;449816;118;922615;-76
2023/01/05 04:14:31;;;;;;;2.39;2.19;;;;;;;2.83;62.19;101027.11;450635;114;922521;-78
2023/01/05 04:15:34;;;;;;;2.54;2.34;;;;;;;2.84;62.07;101029.66;440759;120;922917;-77
2023/01/05 04:16:39;;;;;;;1.83;1.73;;;;;;;2.86;61.99;101026.82;441176;118;922554;-77
2023/01/05 04:17:46;;;;;;;2.14;1.88;;;;;;;2.85;61.85;101025.97;449134;118;930289;-77
2023/01/05 04:18:49;;;;;;;1.69;1.59;;;;;;;2.85;61.87;101023.28;449760;118;922614;-79
2023/01/05 04:19:55;;;;;;;1.94;1.75;;;;;;;2.85;61.73;101019.73;456045;114;922476;-79
2023/01/05 04:20:58;;;;;;;2.85;1.39;;;;;;;2.85;61.74;101025.12;457485;115;922475;-78
2023/01/05 04:22:01;;;;;;;1.89;1.67;;;;;;;2.84;61.72;101023.42;457579;116;930156;-79
2023/01/05 04:23:05;;;;;;;1.41;1.29;;;;;;;2.84;61.65;101023.42;457627;115;922553;-78
2023/01/05 04:24:10;;;;;;;1.66;1.56;;;;;;;2.84;61.67;101013.50;456793;114;930316;-79
2023/01/05 04:25:14;;;;;;;2.14;1.39;;;;;;;2.85;61.65;101017.05;449613;118;923343;-77
2023/01/05 04:26:18;;;;;;;1.65;1.41;;;;;;;2.85;61.51;101014.35;449616;118;922547;-76
2023/01/05 04:27:23;;;;;;;1.42;1.32;;;;;;;2.82;61.52;101015.49;449617;118;922609;-78
2023/01/05 04:28:27;;;;;;;1.72;1.59;;;;;;;2.82;61.39;101011.95;449662;118;922562;-77
2023/01/05 04:29:31;;;;;;;1.95;1.77;;;;;;;2.80;61.29;101005.89;450317;114;922650;-77
2023/01/05 04:30:35;;;;;;;3.22;2.09;;;;;;;2.79;61.38;101004.19;449728;117;922439;-78
2023/01/05 04:31:39;;;;;;;2.17;1.70;;;;;;;2.77;61.45;101001.64;449724;115;922702;-78
2023/01/05 04:32:42;;;;;;;2.42;2.14;;;;;;;2.77;61.48;101007.03;449651;117;930326;-77
2023/01/05 04:33:47;;;;;;;3.64;2.04;;;;;;;2.76;61.42;101001.79;449522;117;930313;-78
2023/01/05 04:34:52;;;;;;;2.31;2.11;;;;;;;2.74;61.21;100996.58;450340;116;922523;-77
2023/01/05 04:35:56;;;;;;;2.41;2.06;;;;;;;2.72;61.19;100998.57;449713;118;922674;-77
2023/01/05 04:37:01;;;;;;;2.73;2.40;;;;;;;2.71;61.34;100996.87;449450;118;930322;-78
2023/01/05 04:38:05;;;;;;;2.25;1.99;;;;;;;2.70;61.33;100994.36;449711;118;922585;-79
2023/01/05 04:39:08;;;;;;;2.49;2.29;;;;;;;2.70;61.29;100992.48;450337;114;922722;-77
2023/01/05 04:40:13;;;;;;;3.44;2.25;;;;;;;2.69;61.37;100995.35;457640;115;922538;-80
2023/01/05 04:41:23;;;;;;;4.17;2.62;;;;;;;2.69;61.42;100996.20;456782;115;922657;-77
2023/01/05 04:42:28;;;;;;;3.64;2.59;;;;;;;2.67;61.50;100992.80;457600;115;923957;-76
2023/01/05 04:43:31;;;;;;;2.25;2.05;;;;;;;2.67;61.48;100992.80;457597;116;922550;-77
2023/01/05 04:44:35;;;;;;;2.72;2.35;;;;;;;2.68;61.55;100990.97;453379;116;922371;-77
2023/01/05 04:45:39;;;;;;;2.96;2.68;;;;;;;2.68;61.58;100982.88;449665;118;930313;-78
2023/01/05 04:46:43;;;;;;;3.02;2.17;;;;;;;2.68;61.61;100986.42;449789;115;923152;-77
2023/01/05 04:47:46;;;;;;;2.67;2.22;;;;;;;2.71;61.78;100990.64;450569;117;922833;-77
2023/01/05 04:48:51;;;;;;;3.09;2.79;;;;;;;2.72;61.87;100976.19;450240;117;930390;-77
2023/01/05 04:49:55;;;;;;;3.16;2.96;;;;;;;2.74;61.73;100980.43;449915;116;922584;-78
2023/01/05 04:50:59;;;;;;;3.53;3.22;;;;;;;2.74;61.73;100980.43;449513;118;930300;-79
2023/01/05 04:52:07;;;;;;;3.50;2.88;;;;;;;2.76;61.72;100980.25;449500;117;922903;-77
2023/01/05 04:53:10;;;;;;;3.24;2.99;;;;;;;2.77;61.66;100984.64;449640;118;922592;-77
2023/01/05 04:54:16;;;;;;;3.33;3.03;;;;;;;2.75;61.58;100982.13;449981;114;930407;-77
2023/01/05 04:55:19;;;;;;;3.59;3.27;;;;;;;2.74;61.47;100988.50;449646;115;922561;-78
2023/01/05 04:56:22;;;;;;;4.34;3.71;;;;;;;2.74;61.44;100984.97;449689;115;922595;-78
2023/01/05 04:57:25;;;;;;;3.92;3.52;;;;;;;2.72;61.35;100982.42;449694;118;922497;-78
2023/01/05 04:58:28;;;;;;;4.09;3.71;;;;;;;2.71;61.49;100980.72;449699;118;922505;-78
2023/01/05 04:59:33;;;;;;;4.98;4.56;;;;;;;2.69;61.39;100988.12;449000;114;922567;-78
2023/01/05 05:00:38;;;;;;;6.02;5.46;;;;;;;2.68;61.54;100981.05;447895;118;930474;-78
2023/01/05 05:01:43;;;;;;;7.94;7.32;;;;;;;2.68;61.58;100982.88;447974;118;922712;-77
2023/01/05 05:02:47;;;;;;;9.02;8.33;;;;;;;2.68;61.67;100989.12;448084;118;923044;-77
2023/01/05 05:03:51;;;;;;;7.79;7.19;;;;;;;2.69;61.78;100988.12;448022;118;922560;-78
2023/01/05 05:04:55;;;;;;;7.36;6.79;;;;;;;2.70;61.90;100984.41;456042;114;922520;-77
2023/01/05 05:05:58;;;;;;;8.38;6.36;;;;;;;2.71;61.93;100978.03;457442;116;930448;-77
2023/01/05 05:07:03;;;;;;;6.30;5.82;;;;;;;2.73;61.88;100983.27;457380;116;923102;-77
2023/01/05 05:08:07;;;;;;;5.40;4.99;;;;;;;2.72;61.69;100982.42;457423;115;930538;-78
2023/01/05 05:09:10;;;;;;;5.46;4.97;;;;;;;2.72;61.63;100982.42;448709;116;922507;-77
2023/01/05 05:10:16;;;;;;;5.46;4.91;;;;;;;2.71;61.66;100980.72;457521;116;922527;-79
2023/01/05 05:11:19;;;;;;;4.86;4.13;;;;;;;2.70;61.55;100978.20;457405;116;922517;-78
2023/01/05 05:12:23;;;;;;;5.18;4.51;;;;;;;2.69;61.70;100974.66;457449;116;922940;-78
2023/01/05 05:13:27;;;;;;;4.32;3.92;;;;;;;2.69;61.62;100974.66;457489;115;922490;-77
2023/01/05 05:14:30;;;;;;;5.09;4.42;;;;;;;2.70;61.74;100979.02;456810;114;925594;-77
2023/01/05 05:15:34;;;;;;;4.32;3.74;;;;;;;2.71;61.81;100961.02;457359;115;922312;-78
2023/01/05 05:16:38;;;;;;;6.75;3.98;;;;;;;2.72;61.78;100970.80;457368;115;930497;-78
2023/01/05 05:17:41;;;;;;;4.16;3.75;;;;;;;2.73;61.89;100964.42;457388;116;930477;-76
2023/01/05 05:18:47;;;;;;;4.21;3.73;;;;;;;2.74;61.87;100969.66;448636;118;930498;-77
2023/01/05 05:19:55;;;;;;;4.28;3.94;;;;;;;2.76;61.81;100972.17;456530;114;922334;-77
2023/01/05 05:20:59;;;;;;;4.52;4.12;;;;;;;2.77;61.90;100974.72;457440;115;922519;-77
2023/01/05 05:22:04;;;;;;;5.88;4.04;;;;;;;2.80;61.97;100968.19;457078;115;930597;-78
2023/01/05 05:23:07;;;;;;;5.32;4.71;;;;;;;2.82;61.96;100964.33;457539;115;922557;-77
2023/01/05 05:24:11;;;;;;;5.26;4.78;;;;;;;2.84;61.86;100962.34;456621;114;923019;-77
2023/01/05 05:25:16;;;;;;;5.47;4.99;;;;;;;2.86;61.71;100959.49;449512;118;922643;-77
2023/01/05 05:26:21;;;;;;;5.46;4.86;;;;;;;2.85;61.58;100961.34;449513;115;922930;-78
2023/01/05 05:27:24;;;;;;;5.80;5.29;;;;;;;2.84;61.57;100956.09;449599;118;922513;-78
2023/01/05 05:28:27;;;;;;;9.57;6.22;;;;;;;2.82;61.55;100956.25;449729;117;922515;-77
2023/01/05 05:29:31;;;;;;;7.01;6.35;;;;;;;2.81;61.43;100965.32;453245;114;922548;-78
2023/01/05 05:30:36;;;;;;;7.45;6.31;;;;;;;2.81;61.46;100959.12;457443;115;922648;-76
2023/01/05 05:31:39;;;;;;;6.68;6.08;;;;;;;2.79;61.38;100945.80;457325;116;922859;-77
2023/01/05 05:32:42;;;;;;;5.97;5.42;;;;;;;2.77;61.42;100942.41;457444;116;922488;-77
2023/01/05 05:33:47;;;;;;;6.29;5.69;;;;;;;2.74;61.23;100937.34;457383;116;922596;-77
2023/01/05 05:34:50;;;;;;;5.85;5.37;;;;;;;2.72;61.19;100935.80;451698;114;930479;-77
2023/01/05 05:35:53;;;;;;;6.63;5.10;;;;;;;2.69;61.19;100928.89;449674;118;922995;-77
2023/01/05 05:36:56;;;;;;;5.79;5.29;;;;;;;2.67;61.36;100935.42;449645;118;922592;-78
2023/01/05 05:38:00;;;;;;;5.59;5.09;;;;;;;2.66;61.40;100933.72;449643;118;922581;-77
2023/01/05 05:39:03;;;;;;;10.19;5.26;;;;;;;2.65;61.56;100935.56;449825;116;922983;-78